Airport View

Enter AWOS ICAO identifier for current METAR.

ex. KFNL

KRVS 221753Z 02013G22KT 10SM FEW029 BKN039 27/20 A3010 RMK AO2 SLP196 60001 T02720200 10283 20233 50007

22 Jul 2019 18:11

Phone: 918-299-0740

Other Area AWOS: KTUL - KOWP - KOKM - KGCM

TAF KRVS 221720Z 2218/2318 36009KT P6SM SCT021 OVC035 TEMPO 2218/2222 BKN021 FM222200 02012G22KT P6SM SKC FM230100 03008KT P6SM SKC